sensor_id;sensor_type;location;lat;lon;timestamp;P1;durP1;ratioP1;P2;durP2;ratioP2
38021;SDS011;23832;43.216;27.946;2022-09-09T00:00:37;16.48;;;12.20;;
38021;SDS011;23832;43.216;27.946;2022-09-09T00:02:43;14.38;;;12.02;;
38021;SDS011;23832;43.216;27.946;2022-09-09T00:04:54;16.15;;;12.27;;
38021;SDS011;23832;43.216;27.946;2022-09-09T00:07:03;14.88;;;12.18;;
38021;SDS011;23832;43.216;27.946;2022-09-09T00:09:10;14.82;;;13.18;;
38021;SDS011;23832;43.216;27.946;2022-09-09T00:11:21;13.20;;;11.15;;
38021;SDS011;23832;43.216;27.946;2022-09-09T00:13:30;14.10;;;12.15;;
38021;SDS011;23832;43.216;27.946;2022-09-09T00:15:38;14.65;;;11.65;;
38021;SDS011;23832;43.216;27.946;2022-09-09T00:17:46;14.38;;;10.82;;
38021;SDS011;23832;43.216;27.946;2022-09-09T00:19:54;13.40;;;11.10;;
38021;SDS011;23832;43.216;27.946;2022-09-09T00:22:07;13.98;;;11.07;;
38021;SDS011;23832;43.216;27.946;2022-09-09T00:24:18;13.05;;;11.02;;
38021;SDS011;23832;43.216;27.946;2022-09-09T00:26:30;13.10;;;11.00;;
38021;SDS011;23832;43.216;27.946;2022-09-09T00:28:39;17.00;;;15.40;;
38021;SDS011;23832;43.216;27.946;2022-09-09T00:30:47;15.00;;;13.40;;
38021;SDS011;23832;43.216;27.946;2022-09-09T00:32:50;14.95;;;13.45;;
38021;SDS011;23832;43.216;27.946;2022-09-09T00:34:59;13.10;;;10.90;;
38021;SDS011;23832;43.216;27.946;2022-09-09T00:37:05;15.70;;;12.05;;
38021;SDS011;23832;43.216;27.946;2022-09-09T00:39:12;17.05;;;15.45;;
38021;SDS011;23832;43.216;27.946;2022-09-09T00:41:20;17.53;;;15.83;;
38021;SDS011;23832;43.216;27.946;2022-09-09T00:43:29;17.05;;;15.35;;
38021;SDS011;23832;43.216;27.946;2022-09-09T00:45:45;16.15;;;14.50;;
38021;SDS011;23832;43.216;27.946;2022-09-09T00:48:08;17.23;;;15.63;;
38021;SDS011;23832;43.216;27.946;2022-09-09T00:50:15;17.63;;;15.93;;
38021;SDS011;23832;43.216;27.946;2022-09-09T00:52:31;20.08;;;18.23;;
38021;SDS011;23832;43.216;27.946;2022-09-09T00:54:44;17.77;;;16.17;;
38021;SDS011;23832;43.216;27.946;2022-09-09T00:56:56;17.80;;;16.00;;
38021;SDS011;23832;43.216;27.946;2022-09-09T00:59:12;17.90;;;15.85;;
38021;SDS011;23832;43.216;27.946;2022-09-09T01:01:24;16.90;;;15.30;;
38021;SDS011;23832;43.216;27.946;2022-09-09T01:03:29;17.73;;;15.93;;
38021;SDS011;23832;43.216;27.946;2022-09-09T01:05:39;17.05;;;14.90;;
38021;SDS011;23832;43.216;27.946;2022-09-09T01:07:47;17.90;;;16.17;;
38021;SDS011;23832;43.216;27.946;2022-09-09T01:09:52;18.80;;;17.10;;
38021;SDS011;23832;43.216;27.946;2022-09-09T01:11:59;17.85;;;16.15;;
38021;SDS011;23832;43.216;27.946;2022-09-09T01:14:11;17.60;;;15.90;;
38021;SDS011;23832;43.216;27.946;2022-09-09T01:16:21;17.63;;;15.93;;
38021;SDS011;23832;43.216;27.946;2022-09-09T01:18:23;17.65;;;15.95;;
38021;SDS011;23832;43.216;27.946;2022-09-09T01:20:30;17.40;;;15.73;;
38021;SDS011;23832;43.216;27.946;2022-09-09T01:22:41;18.00;;;16.23;;
38021;SDS011;23832;43.216;27.946;2022-09-09T01:25:01;17.55;;;15.85;;
38021;SDS011;23832;43.216;27.946;2022-09-09T01:27:22;17.40;;;15.80;;
38021;SDS011;23832;43.216;27.946;2022-09-09T01:29:25;17.70;;;15.98;;
38021;SDS011;23832;43.216;27.946;2022-09-09T01:31:28;17.98;;;16.02;;
38021;SDS011;23832;43.216;27.946;2022-09-09T01:33:33;16.33;;;14.73;;
38021;SDS011;23832;43.216;27.946;2022-09-09T01:35:37;17.83;;;16.15;;
38021;SDS011;23832;43.216;27.946;2022-09-09T01:37:44;16.98;;;15.27;;
38021;SDS011;23832;43.216;27.946;2022-09-09T01:39:46;17.58;;;15.93;;
38021;SDS011;23832;43.216;27.946;2022-09-09T01:41:48;17.88;;;16.17;;
38021;SDS011;23832;43.216;27.946;2022-09-09T01:43:52;17.50;;;15.80;;
38021;SDS011;23832;43.216;27.946;2022-09-09T01:45:59;17.15;;;15.55;;
38021;SDS011;23832;43.216;27.946;2022-09-09T01:48:02;17.80;;;15.93;;
38021;SDS011;23832;43.216;27.946;2022-09-09T01:50:05;19.08;;;17.23;;
38021;SDS011;23832;43.216;27.946;2022-09-09T01:52:11;17.55;;;15.95;;
38021;SDS011;23832;43.216;27.946;2022-09-09T01:54:13;18.77;;;17.00;;
38021;SDS011;23832;43.216;27.946;2022-09-09T01:56:19;19.15;;;17.45;;
38021;SDS011;23832;43.216;27.946;2022-09-09T01:58:31;17.45;;;15.80;;
38021;SDS011;23832;43.216;27.946;2022-09-09T02:00:43;17.00;;;15.40;;
38021;SDS011;23832;43.216;27.946;2022-09-09T02:02:54;18.05;;;16.35;;
38021;SDS011;23832;43.216;27.946;2022-09-09T02:05:04;18.60;;;16.80;;
38021;SDS011;23832;43.216;27.946;2022-09-09T02:07:21;16.75;;;15.15;;
38021;SDS011;23832;43.216;27.946;2022-09-09T02:09:36;16.52;;;14.93;;
38021;SDS011;23832;43.216;27.946;2022-09-09T02:11:41;16.35;;;14.75;;
38021;SDS011;23832;43.216;27.946;2022-09-09T02:13:47;12.57;;;11.27;;
38021;SDS011;23832;43.216;27.946;2022-09-09T02:15:55;18.38;;;16.67;;
38021;SDS011;23832;43.216;27.946;2022-09-09T02:18:00;18.38;;;16.58;;
38021;SDS011;23832;43.216;27.946;2022-09-09T02:20:09;22.92;;;20.65;;
38021;SDS011;23832;43.216;27.946;2022-09-09T02:22:14;20.60;;;18.60;;
38021;SDS011;23832;43.216;27.946;2022-09-09T02:24:18;14.70;;;12.48;;
38021;SDS011;23832;43.216;27.946;2022-09-09T02:26:20;15.20;;;13.35;;
38021;SDS011;23832;43.216;27.946;2022-09-09T02:28:23;15.90;;;13.82;;
38021;SDS011;23832;43.216;27.946;2022-09-09T02:30:28;17.52;;;13.10;;
38021;SDS011;23832;43.216;27.946;2022-09-09T02:32:35;35.42;;;12.20;;
38021;SDS011;23832;43.216;27.946;2022-09-09T02:34:41;18.23;;;16.42;;
38021;SDS011;23832;43.216;27.946;2022-09-09T02:36:47;18.85;;;17.05;;
38021;SDS011;23832;43.216;27.946;2022-09-09T02:38:50;16.38;;;14.40;;
38021;SDS011;23832;43.216;27.946;2022-09-09T02:40:54;17.55;;;15.75;;
38021;SDS011;23832;43.216;27.946;2022-09-09T02:42:56;17.48;;;15.88;;
38021;SDS011;23832;43.216;27.946;2022-09-09T02:44:57;17.67;;;15.80;;
38021;SDS011;23832;43.216;27.946;2022-09-09T02:47:07;16.85;;;15.25;;
38021;SDS011;23832;43.216;27.946;2022-09-09T02:49:20;17.50;;;15.73;;
38021;SDS011;23832;43.216;27.946;2022-09-09T02:51:31;19.40;;;17.50;;
38021;SDS011;23832;43.216;27.946;2022-09-09T02:53:43;20.67;;;18.63;;
38021;SDS011;23832;43.216;27.946;2022-09-09T02:55:50;19.75;;;17.95;;
38021;SDS011;23832;43.216;27.946;2022-09-09T03:00:04;16.63;;;14.93;;
38021;SDS011;23832;43.216;27.946;2022-09-09T03:02:08;16.27;;;14.68;;
38021;SDS011;23832;43.216;27.946;2022-09-09T03:04:11;16.83;;;14.88;;
38021;SDS011;23832;43.216;27.946;2022-09-09T03:06:14;16.10;;;14.50;;
38021;SDS011;23832;43.216;27.946;2022-09-09T03:08:16;17.80;;;16.10;;
38021;SDS011;23832;43.216;27.946;2022-09-09T03:10:18;16.85;;;15.25;;
38021;SDS011;23832;43.216;27.946;2022-09-09T03:12:20;13.60;;;12.20;;
38021;SDS011;23832;43.216;27.946;2022-09-09T03:14:22;13.13;;;11.13;;
38021;SDS011;23832;43.216;27.946;2022-09-09T03:16:25;17.45;;;15.65;;
38021;SDS011;23832;43.216;27.946;2022-09-09T03:18:27;17.67;;;15.88;;
38021;SDS011;23832;43.216;27.946;2022-09-09T03:20:29;18.38;;;16.58;;
38021;SDS011;23832;43.216;27.946;2022-09-09T03:22:33;18.95;;;17.05;;
38021;SDS011;23832;43.216;27.946;2022-09-09T03:24:35;20.17;;;18.35;;
38021;SDS011;23832;43.216;27.946;2022-09-09T03:26:37;18.75;;;16.95;;
38021;SDS011;23832;43.216;27.946;2022-09-09T03:28:40;18.48;;;16.67;;
38021;SDS011;23832;43.216;27.946;2022-09-09T03:30:42;18.50;;;16.70;;
38021;SDS011;23832;43.216;27.946;2022-09-09T03:32:44;19.95;;;18.05;;
38021;SDS011;23832;43.216;27.946;2022-09-09T03:34:46;18.08;;;16.17;;
38021;SDS011;23832;43.216;27.946;2022-09-09T03:36:49;18.60;;;16.90;;
38021;SDS011;23832;43.216;27.946;2022-09-09T03:38:53;18.70;;;16.50;;
38021;SDS011;23832;43.216;27.946;2022-09-09T03:40:56;20.33;;;18.52;;
38021;SDS011;23832;43.216;27.946;2022-09-09T03:42:58;19.08;;;17.20;;
38021;SDS011;23832;43.216;27.946;2022-09-09T03:45:00;20.75;;;18.75;;
38021;SDS011;23832;43.216;27.946;2022-09-09T03:47:02;21.35;;;19.30;;
38021;SDS011;23832;43.216;27.946;2022-09-09T03:49:05;20.17;;;18.17;;
38021;SDS011;23832;43.216;27.946;2022-09-09T03:51:07;20.77;;;18.67;;
38021;SDS011;23832;43.216;27.946;2022-09-09T03:53:08;24.75;;;22.15;;
38021;SDS011;23832;43.216;27.946;2022-09-09T03:55:12;21.15;;;18.83;;
38021;SDS011;23832;43.216;27.946;2022-09-09T03:57:14;26.15;;;22.98;;
38021;SDS011;23832;43.216;27.946;2022-09-09T03:59:17;23.55;;;21.13;;
38021;SDS011;23832;43.216;27.946;2022-09-09T04:01:21;21.77;;;19.55;;
38021;SDS011;23832;43.216;27.946;2022-09-09T04:03:23;20.40;;;18.30;;
38021;SDS011;23832;43.216;27.946;2022-09-09T04:05:26;21.95;;;19.67;;
38021;SDS011;23832;43.216;27.946;2022-09-09T04:07:28;19.45;;;17.63;;
38021;SDS011;23832;43.216;27.946;2022-09-09T04:09:30;19.33;;;17.35;;
38021;SDS011;23832;43.216;27.946;2022-09-09T04:11:33;19.48;;;17.58;;
38021;SDS011;23832;43.216;27.946;2022-09-09T04:13:35;17.65;;;15.85;;
38021;SDS011;23832;43.216;27.946;2022-09-09T04:15:39;22.00;;;19.90;;
38021;SDS011;23832;43.216;27.946;2022-09-09T04:17:41;21.92;;;19.63;;
38021;SDS011;23832;43.216;27.946;2022-09-09T04:19:43;21.65;;;19.65;;
38021;SDS011;23832;43.216;27.946;2022-09-09T04:21:45;20.55;;;18.45;;
38021;SDS011;23832;43.216;27.946;2022-09-09T04:23:50;18.67;;;16.65;;
38021;SDS011;23832;43.216;27.946;2022-09-09T04:25:53;18.70;;;16.75;;
38021;SDS011;23832;43.216;27.946;2022-09-09T04:27:57;18.85;;;16.95;;
38021;SDS011;23832;43.216;27.946;2022-09-09T04:29:59;20.58;;;18.38;;
38021;SDS011;23832;43.216;27.946;2022-09-09T04:32:01;20.20;;;18.20;;
38021;SDS011;23832;43.216;27.946;2022-09-09T04:34:03;21.13;;;18.42;;
38021;SDS011;23832;43.216;27.946;2022-09-09T04:36:06;19.90;;;17.80;;
38021;SDS011;23832;43.216;27.946;2022-09-09T04:38:09;20.63;;;18.48;;
38021;SDS011;23832;43.216;27.946;2022-09-09T04:40:11;19.02;;;17.02;;
38021;SDS011;23832;43.216;27.946;2022-09-09T04:42:13;21.83;;;19.52;;
38021;SDS011;23832;43.216;27.946;2022-09-09T04:44:17;18.63;;;16.65;;
38021;SDS011;23832;43.216;27.946;2022-09-09T04:46:20;21.23;;;18.05;;
38021;SDS011;23832;43.216;27.946;2022-09-09T04:48:22;22.50;;;19.42;;
38021;SDS011;23832;43.216;27.946;2022-09-09T04:50:25;21.98;;;19.70;;
38021;SDS011;23832;43.216;27.946;2022-09-09T04:52:29;19.00;;;17.00;;
38021;SDS011;23832;43.216;27.946;2022-09-09T04:54:31;19.13;;;17.33;;
38021;SDS011;23832;43.216;27.946;2022-09-09T04:56:33;18.08;;;16.17;;
38021;SDS011;23832;43.216;27.946;2022-09-09T04:58:36;19.05;;;17.15;;
38021;SDS011;23832;43.216;27.946;2022-09-09T05:00:40;18.67;;;16.88;;
38021;SDS011;23832;43.216;27.946;2022-09-09T05:02:42;19.27;;;17.30;;
38021;SDS011;23832;43.216;27.946;2022-09-09T05:04:44;19.35;;;17.55;;
38021;SDS011;23832;43.216;27.946;2022-09-09T05:06:46;17.73;;;15.80;;
38021;SDS011;23832;43.216;27.946;2022-09-09T05:08:48;21.75;;;17.15;;
38021;SDS011;23832;43.216;27.946;2022-09-09T05:10:50;20.13;;;18.02;;
38021;SDS011;23832;43.216;27.946;2022-09-09T05:12:52;19.67;;;17.67;;
38021;SDS011;23832;43.216;27.946;2022-09-09T05:14:55;19.27;;;17.38;;
38021;SDS011;23832;43.216;27.946;2022-09-09T05:16:58;17.52;;;14.85;;
38021;SDS011;23832;43.216;27.946;2022-09-09T05:19:00;18.38;;;16.45;;
38021;SDS011;23832;43.216;27.946;2022-09-09T05:21:03;19.40;;;17.23;;
38021;SDS011;23832;43.216;27.946;2022-09-09T05:23:07;18.52;;;16.63;;
38021;SDS011;23832;43.216;27.946;2022-09-09T05:25:10;19.35;;;17.27;;
38021;SDS011;23832;43.216;27.946;2022-09-09T05:27:12;18.55;;;16.75;;
38021;SDS011;23832;43.216;27.946;2022-09-09T05:29:14;17.25;;;15.45;;
38021;SDS011;23832;43.216;27.946;2022-09-09T05:31:19;18.90;;;17.00;;
38021;SDS011;23832;43.216;27.946;2022-09-09T05:33:22;24.63;;;22.10;;
38021;SDS011;23832;43.216;27.946;2022-09-09T05:35:26;18.50;;;16.52;;
38021;SDS011;23832;43.216;27.946;2022-09-09T05:37:28;17.70;;;15.95;;
38021;SDS011;23832;43.216;27.946;2022-09-09T05:39:30;16.60;;;14.85;;
38021;SDS011;23832;43.216;27.946;2022-09-09T05:41:33;16.42;;;14.73;;
38021;SDS011;23832;43.216;27.946;2022-09-09T05:43:35;19.20;;;17.20;;
38021;SDS011;23832;43.216;27.946;2022-09-09T05:45:38;17.75;;;15.85;;
38021;SDS011;23832;43.216;27.946;2022-09-09T05:47:40;16.67;;;14.93;;
38021;SDS011;23832;43.216;27.946;2022-09-09T05:49:43;18.25;;;14.88;;
38021;SDS011;23832;43.216;27.946;2022-09-09T05:51:45;16.13;;;14.43;;
38021;SDS011;23832;43.216;27.946;2022-09-09T05:53:48;17.30;;;15.52;;
38021;SDS011;23832;43.216;27.946;2022-09-09T05:55:57;17.92;;;15.82;;
38021;SDS011;23832;43.216;27.946;2022-09-09T05:58:00;16.33;;;14.55;;
38021;SDS011;23832;43.216;27.946;2022-09-09T06:00:02;15.80;;;14.20;;
38021;SDS011;23832;43.216;27.946;2022-09-09T06:02:04;16.73;;;14.98;;
38021;SDS011;23832;43.216;27.946;2022-09-09T06:04:07;16.52;;;14.82;;
38021;SDS011;23832;43.216;27.946;2022-09-09T06:06:11;16.60;;;15.00;;
38021;SDS011;23832;43.216;27.946;2022-09-09T06:08:15;17.95;;;16.15;;
38021;SDS011;23832;43.216;27.946;2022-09-09T06:10:17;17.83;;;15.95;;
38021;SDS011;23832;43.216;27.946;2022-09-09T06:12:20;17.67;;;15.98;;
38021;SDS011;23832;43.216;27.946;2022-09-09T06:14:22;16.85;;;15.07;;
38021;SDS011;23832;43.216;27.946;2022-09-09T06:16:26;20.00;;;17.92;;
38021;SDS011;23832;43.216;27.946;2022-09-09T06:18:29;19.15;;;17.40;;
38021;SDS011;23832;43.216;27.946;2022-09-09T06:20:31;16.70;;;14.82;;
38021;SDS011;23832;43.216;27.946;2022-09-09T06:22:34;19.30;;;17.25;;
38021;SDS011;23832;43.216;27.946;2022-09-09T06:24:36;19.38;;;17.48;;
38021;SDS011;23832;43.216;27.946;2022-09-09T06:26:38;20.02;;;18.02;;
38021;SDS011;23832;43.216;27.946;2022-09-09T06:28:41;18.02;;;16.27;;
38021;SDS011;23832;43.216;27.946;2022-09-09T06:30:43;19.23;;;17.02;;
38021;SDS011;23832;43.216;27.946;2022-09-09T06:32:46;19.67;;;17.80;;
38021;SDS011;23832;43.216;27.946;2022-09-09T06:34:47;18.08;;;16.30;;
38021;SDS011;23832;43.216;27.946;2022-09-09T06:36:50;17.48;;;15.80;;
38021;SDS011;23832;43.216;27.946;2022-09-09T06:38:53;19.40;;;17.40;;
38021;SDS011;23832;43.216;27.946;2022-09-09T06:40:56;17.88;;;16.02;;
38021;SDS011;23832;43.216;27.946;2022-09-09T06:42:59;19.50;;;17.70;;
38021;SDS011;23832;43.216;27.946;2022-09-09T06:45:02;19.05;;;17.25;;
38021;SDS011;23832;43.216;27.946;2022-09-09T06:47:07;19.13;;;17.33;;
38021;SDS011;23832;43.216;27.946;2022-09-09T06:49:09;16.27;;;14.57;;
38021;SDS011;23832;43.216;27.946;2022-09-09T06:51:12;19.63;;;17.80;;
38021;SDS011;23832;43.216;27.946;2022-09-09T06:53:16;19.38;;;17.58;;
38021;SDS011;23832;43.216;27.946;2022-09-09T06:55:20;18.17;;;16.08;;
38021;SDS011;23832;43.216;27.946;2022-09-09T06:57:22;18.17;;;16.48;;
38021;SDS011;23832;43.216;27.946;2022-09-09T06:59:26;19.08;;;17.38;;
38021;SDS011;23832;43.216;27.946;2022-09-09T07:01:29;18.83;;;17.08;;
38021;SDS011;23832;43.216;27.946;2022-09-09T07:03:32;17.70;;;16.10;;
38021;SDS011;23832;43.216;27.946;2022-09-09T07:05:35;19.73;;;17.65;;
38021;SDS011;23832;43.216;27.946;2022-09-09T07:07:37;19.15;;;17.25;;
38021;SDS011;23832;43.216;27.946;2022-09-09T07:09:39;19.20;;;17.30;;
38021;SDS011;23832;43.216;27.946;2022-09-09T07:11:43;20.05;;;18.25;;
38021;SDS011;23832;43.216;27.946;2022-09-09T07:13:46;14.70;;;13.20;;
38021;SDS011;23832;43.216;27.946;2022-09-09T07:15:48;18.88;;;13.20;;
38021;SDS011;23832;43.216;27.946;2022-09-09T07:17:50;15.48;;;13.27;;
38021;SDS011;23832;43.216;27.946;2022-09-09T07:19:54;15.98;;;13.63;;
38021;SDS011;23832;43.216;27.946;2022-09-09T07:21:56;14.70;;;12.32;;
38021;SDS011;23832;43.216;27.946;2022-09-09T07:23:58;14.82;;;12.40;;
38021;SDS011;23832;43.216;27.946;2022-09-09T07:26:01;14.98;;;13.07;;
38021;SDS011;23832;43.216;27.946;2022-09-09T07:28:04;14.73;;;13.23;;
38021;SDS011;23832;43.216;27.946;2022-09-09T07:30:09;14.43;;;12.15;;
38021;SDS011;23832;43.216;27.946;2022-09-09T07:32:11;14.35;;;12.85;;
38021;SDS011;23832;43.216;27.946;2022-09-09T07:34:13;14.30;;;11.20;;
38021;SDS011;23832;43.216;27.946;2022-09-09T07:36:16;16.75;;;10.55;;
38021;SDS011;23832;43.216;27.946;2022-09-09T07:38:21;14.13;;;12.02;;
38021;SDS011;23832;43.216;27.946;2022-09-09T07:40:23;13.73;;;11.77;;
38021;SDS011;23832;43.216;27.946;2022-09-09T07:42:26;13.40;;;12.00;;
38021;SDS011;23832;43.216;27.946;2022-09-09T07:44:29;14.85;;;12.55;;
38021;SDS011;23832;43.216;27.946;2022-09-09T07:46:32;13.52;;;11.98;;
38021;SDS011;23832;43.216;27.946;2022-09-09T07:48:35;16.33;;;12.45;;
38021;SDS011;23832;43.216;27.946;2022-09-09T07:50:37;12.38;;;10.63;;
38021;SDS011;23832;43.216;27.946;2022-09-09T07:52:40;13.75;;;12.27;;
38021;SDS011;23832;43.216;27.946;2022-09-09T07:54:42;16.48;;;12.43;;
38021;SDS011;23832;43.216;27.946;2022-09-09T07:56:46;13.93;;;12.40;;
38021;SDS011;23832;43.216;27.946;2022-09-09T07:58:50;14.13;;;11.60;;
38021;SDS011;23832;43.216;27.946;2022-09-09T08:00:54;14.02;;;12.45;;
38021;SDS011;23832;43.216;27.946;2022-09-09T08:02:57;14.55;;;12.30;;
38021;SDS011;23832;43.216;27.946;2022-09-09T08:05:01;13.95;;;12.40;;
38021;SDS011;23832;43.216;27.946;2022-09-09T08:07:03;14.05;;;12.35;;
38021;SDS011;23832;43.216;27.946;2022-09-09T08:09:05;15.73;;;12.45;;
38021;SDS011;23832;43.216;27.946;2022-09-09T08:11:09;14.73;;;12.75;;
38021;SDS011;23832;43.216;27.946;2022-09-09T08:13:12;14.20;;;12.43;;
38021;SDS011;23832;43.216;27.946;2022-09-09T08:15:14;14.02;;;12.07;;
38021;SDS011;23832;43.216;27.946;2022-09-09T08:17:18;13.10;;;11.65;;
38021;SDS011;23832;43.216;27.946;2022-09-09T08:19:20;18.63;;;16.83;;
38021;SDS011;23832;43.216;27.946;2022-09-09T08:21:23;18.95;;;17.15;;
38021;SDS011;23832;43.216;27.946;2022-09-09T08:23:28;17.33;;;15.50;;
38021;SDS011;23832;43.216;27.946;2022-09-09T08:25:30;17.92;;;16.23;;
38021;SDS011;23832;43.216;27.946;2022-09-09T08:27:31;19.60;;;17.80;;
38021;SDS011;23832;43.216;27.946;2022-09-09T08:29:34;18.17;;;15.50;;
38021;SDS011;23832;43.216;27.946;2022-09-09T08:31:38;16.80;;;14.52;;
38021;SDS011;23832;43.216;27.946;2022-09-09T08:33:43;19.25;;;17.35;;
38021;SDS011;23832;43.216;27.946;2022-09-09T08:35:49;17.60;;;15.85;;
38021;SDS011;23832;43.216;27.946;2022-09-09T08:37:53;20.15;;;18.35;;
38021;SDS011;23832;43.216;27.946;2022-09-09T08:39:55;17.85;;;16.15;;
38021;SDS011;23832;43.216;27.946;2022-09-09T08:44:38;18.52;;;16.75;;
38021;SDS011;23832;43.216;27.946;2022-09-09T08:46:51;18.52;;;16.83;;
38021;SDS011;23832;43.216;27.946;2022-09-09T08:49:01;17.00;;;15.35;;
38021;SDS011;23832;43.216;27.946;2022-09-09T08:51:15;17.90;;;16.17;;
38021;SDS011;23832;43.216;27.946;2022-09-09T08:53:18;17.70;;;15.90;;
38021;SDS011;23832;43.216;27.946;2022-09-09T08:55:26;17.02;;;15.32;;
38021;SDS011;23832;43.216;27.946;2022-09-09T08:57:36;18.20;;;16.35;;
38021;SDS011;23832;43.216;27.946;2022-09-09T08:59:38;18.02;;;16.23;;
38021;SDS011;23832;43.216;27.946;2022-09-09T09:01:47;18.98;;;17.08;;
38021;SDS011;23832;43.216;27.946;2022-09-09T09:03:56;17.17;;;15.48;;
38021;SDS011;23832;43.216;27.946;2022-09-09T09:06:15;18.20;;;15.38;;
38021;SDS011;23832;43.216;27.946;2022-09-09T09:08:29;17.92;;;16.05;;
38021;SDS011;23832;43.216;27.946;2022-09-09T09:10:44;16.45;;;14.75;;
38021;SDS011;23832;43.216;27.946;2022-09-09T09:12:50;18.83;;;16.45;;
38021;SDS011;23832;43.216;27.946;2022-09-09T09:14:52;17.15;;;14.57;;
38021;SDS011;23832;43.216;27.946;2022-09-09T09:16:56;17.80;;;15.90;;
38021;SDS011;23832;43.216;27.946;2022-09-09T09:19:01;17.80;;;16.00;;
38021;SDS011;23832;43.216;27.946;2022-09-09T09:21:05;17.42;;;15.75;;
38021;SDS011;23832;43.216;27.946;2022-09-09T09:23:16;18.20;;;16.20;;
38021;SDS011;23832;43.216;27.946;2022-09-09T09:25:25;18.50;;;16.50;;
38021;SDS011;23832;43.216;27.946;2022-09-09T09:27:31;18.65;;;16.67;;
38021;SDS011;23832;43.216;27.946;2022-09-09T09:29:35;19.67;;;17.83;;
38021;SDS011;23832;43.216;27.946;2022-09-09T09:31:37;13.63;;;11.70;;
38021;SDS011;23832;43.216;27.946;2022-09-09T09:33:43;15.10;;;11.50;;
38021;SDS011;23832;43.216;27.946;2022-09-09T09:35:51;12.98;;;11.13;;
38021;SDS011;23832;43.216;27.946;2022-09-09T09:37:53;14.18;;;11.20;;
38021;SDS011;23832;43.216;27.946;2022-09-09T09:39:56;14.77;;;12.20;;
38021;SDS011;23832;43.216;27.946;2022-09-09T09:42:09;14.23;;;11.77;;
38021;SDS011;23832;43.216;27.946;2022-09-09T09:44:24;13.52;;;11.63;;
38021;SDS011;23832;43.216;27.946;2022-09-09T09:46:28;13.07;;;11.32;;
38021;SDS011;23832;43.216;27.946;2022-09-09T09:48:31;12.88;;;11.27;;
38021;SDS011;23832;43.216;27.946;2022-09-09T09:50:33;14.80;;;11.70;;
38021;SDS011;23832;43.216;27.946;2022-09-09T09:52:37;13.50;;;11.40;;
38021;SDS011;23832;43.216;27.946;2022-09-09T09:54:44;15.63;;;11.50;;
38021;SDS011;23832;43.216;27.946;2022-09-09T09:56:47;15.43;;;10.95;;
38021;SDS011;23832;43.216;27.946;2022-09-09T09:58:50;13.60;;;10.43;;
38021;SDS011;23832;43.216;27.946;2022-09-09T10:00:54;13.63;;;11.13;;
38021;SDS011;23832;43.216;27.946;2022-09-09T10:02:56;15.48;;;11.82;;
38021;SDS011;23832;43.216;27.946;2022-09-09T10:05:02;15.35;;;11.85;;
38021;SDS011;23832;43.216;27.946;2022-09-09T10:07:10;14.02;;;11.52;;
38021;SDS011;23832;43.216;27.946;2022-09-09T10:09:22;13.55;;;11.60;;
38021;SDS011;23832;43.216;27.946;2022-09-09T10:11:28;14.02;;;11.40;;
38021;SDS011;23832;43.216;27.946;2022-09-09T10:13:40;14.35;;;10.95;;
38021;SDS011;23832;43.216;27.946;2022-09-09T10:15:53;15.10;;;10.88;;
38021;SDS011;23832;43.216;27.946;2022-09-09T10:18:15;12.85;;;10.80;;
38021;SDS011;23832;43.216;27.946;2022-09-09T10:22:37;12.07;;;10.55;;
38021;SDS011;23832;43.216;27.946;2022-09-09T10:24:54;13.27;;;10.95;;
38021;SDS011;23832;43.216;27.946;2022-09-09T10:27:22;13.02;;;10.93;;
38021;SDS011;23832;43.216;27.946;2022-09-09T10:29:35;13.02;;;10.52;;
38021;SDS011;23832;43.216;27.946;2022-09-09T10:31:49;13.75;;;11.23;;
38021;SDS011;23832;43.216;27.946;2022-09-09T10:34:04;13.43;;;11.07;;
38021;SDS011;23832;43.216;27.946;2022-09-09T10:36:17;13.50;;;11.15;;
38021;SDS011;23832;43.216;27.946;2022-09-09T10:38:23;14.85;;;11.65;;
38021;SDS011;23832;43.216;27.946;2022-09-09T10:40:32;16.67;;;12.52;;
38021;SDS011;23832;43.216;27.946;2022-09-09T10:42:39;14.23;;;11.25;;
38021;SDS011;23832;43.216;27.946;2022-09-09T10:44:57;16.75;;;13.43;;
38021;SDS011;23832;43.216;27.946;2022-09-09T10:49:57;15.30;;;11.50;;
38021;SDS011;23832;43.216;27.946;2022-09-09T10:52:13;14.63;;;11.35;;
38021;SDS011;23832;43.216;27.946;2022-09-09T10:56:31;13.63;;;10.95;;
38021;SDS011;23832;43.216;27.946;2022-09-09T10:58:36;13.70;;;11.55;;
38021;SDS011;23832;43.216;27.946;2022-09-09T11:00:44;13.38;;;10.98;;
38021;SDS011;23832;43.216;27.946;2022-09-09T11:02:50;14.50;;;11.23;;
38021;SDS011;23832;43.216;27.946;2022-09-09T11:04:57;13.85;;;10.77;;
38021;SDS011;23832;43.216;27.946;2022-09-09T11:07:05;15.23;;;11.77;;
38021;SDS011;23832;43.216;27.946;2022-09-09T11:09:13;15.02;;;11.68;;
38021;SDS011;23832;43.216;27.946;2022-09-09T11:11:19;13.15;;;10.48;;
38021;SDS011;23832;43.216;27.946;2022-09-09T11:13:30;15.60;;;11.88;;
38021;SDS011;23832;43.216;27.946;2022-09-09T11:15:39;13.57;;;11.15;;
38021;SDS011;23832;43.216;27.946;2022-09-09T11:17:46;14.55;;;11.90;;
38021;SDS011;23832;43.216;27.946;2022-09-09T11:19:51;13.90;;;12.13;;
38021;SDS011;23832;43.216;27.946;2022-09-09T11:21:53;14.98;;;11.70;;
38021;SDS011;23832;43.216;27.946;2022-09-09T11:23:59;14.57;;;11.70;;
38021;SDS011;23832;43.216;27.946;2022-09-09T11:26:11;13.27;;;11.75;;
38021;SDS011;23832;43.216;27.946;2022-09-09T11:28:25;16.10;;;12.82;;
38021;SDS011;23832;43.216;27.946;2022-09-09T11:30:42;15.68;;;11.93;;
38021;SDS011;23832;43.216;27.946;2022-09-09T11:32:58;14.93;;;12.30;;
38021;SDS011;23832;43.216;27.946;2022-09-09T11:35:25;13.45;;;11.55;;
38021;SDS011;23832;43.216;27.946;2022-09-09T11:37:38;13.80;;;11.07;;
38021;SDS011;23832;43.216;27.946;2022-09-09T11:39:57;13.10;;;11.53;;
38021;SDS011;23832;43.216;27.946;2022-09-09T11:42:15;13.57;;;12.15;;
38021;SDS011;23832;43.216;27.946;2022-09-09T11:44:27;15.55;;;12.25;;
38021;SDS011;23832;43.216;27.946;2022-09-09T11:46:32;14.68;;;12.85;;
38021;SDS011;23832;43.216;27.946;2022-09-09T11:48:38;15.35;;;11.35;;
38021;SDS011;23832;43.216;27.946;2022-09-09T11:50:43;13.82;;;12.35;;
38021;SDS011;23832;43.216;27.946;2022-09-09T11:52:45;14.07;;;11.68;;
38021;SDS011;23832;43.216;27.946;2022-09-09T11:54:49;14.10;;;11.90;;
38021;SDS011;23832;43.216;27.946;2022-09-09T11:56:51;14.50;;;12.45;;
38021;SDS011;23832;43.216;27.946;2022-09-09T11:58:54;14.32;;;12.48;;
38021;SDS011;23832;43.216;27.946;2022-09-09T12:01:00;14.77;;;12.13;;
38021;SDS011;23832;43.216;27.946;2022-09-09T12:05:36;14.68;;;12.52;;
38021;SDS011;23832;43.216;27.946;2022-09-09T12:07:45;14.25;;;12.05;;
38021;SDS011;23832;43.216;27.946;2022-09-09T12:09:56;14.43;;;12.55;;
38021;SDS011;23832;43.216;27.946;2022-09-09T12:12:05;14.60;;;12.77;;
38021;SDS011;23832;43.216;27.946;2022-09-09T12:14:34;13.50;;;11.80;;
38021;SDS011;23832;43.216;27.946;2022-09-09T12:16:39;17.08;;;12.57;;
38021;SDS011;23832;43.216;27.946;2022-09-09T12:18:42;15.15;;;13.25;;